createdAt,value
2019-05-01T00:00:59.543Z,29.10
2019-05-01T00:03:57.997Z,28.67
2019-05-01T00:06:45.509Z,30.97
2019-05-01T00:09:31.363Z,29.03
2019-05-01T00:12:16.658Z,31.97
2019-05-01T00:15:01.853Z,29.70
2019-05-01T00:17:47.112Z,28.17
2019-05-01T00:20:32.519Z,29.77
2019-05-01T00:23:18.613Z,28.40
2019-05-01T00:26:03.615Z,30.40
2019-05-01T00:28:48.479Z,31.43
2019-05-01T00:31:33.516Z,29.73
2019-05-01T00:34:18.709Z,30.97
2019-05-01T00:37:03.446Z,30.97
2019-05-01T00:39:48.582Z,31.53
2019-05-01T00:42:33.562Z,31.23
2019-05-01T00:45:18.432Z,29.77
2019-05-01T00:48:04.447Z,30.20
2019-05-01T00:50:49.662Z,29.43
2019-05-01T00:53:34.641Z,31.77
2019-05-01T00:56:21.362Z,29.70
2019-05-01T00:59:17.256Z,30.77
2019-05-01T01:02:10.315Z,31.73
2019-05-01T01:04:55.126Z,33.13
2019-05-01T01:07:39.947Z,28.80
2019-05-01T01:10:26.826Z,30.57
2019-05-01T01:13:11.891Z,29.60
2019-05-01T01:15:56.801Z,28.03
2019-05-01T01:18:41.506Z,29.27
2019-05-01T01:21:26.464Z,27.17
2019-05-01T01:24:11.467Z,28.63
2019-05-01T01:26:56.343Z,31.10
2019-05-01T01:29:41.021Z,29.40
2019-05-01T01:32:25.607Z,31.37
2019-05-01T01:35:10.732Z,32.13
2019-05-01T01:37:55.850Z,29.60
2019-05-01T01:40:41.557Z,29.13
2019-05-01T01:43:44.075Z,32.63
2019-05-01T01:46:31.207Z,30.67
2019-05-01T01:49:17.830Z,31.03
2019-05-01T01:52:03.109Z,33.30
2019-05-01T01:54:48.431Z,33.50
2019-05-01T01:57:33.462Z,34.03
2019-05-01T02:00:21.766Z,33.37
2019-05-01T02:03:08.538Z,34.83
2019-05-01T02:05:53.481Z,36.43
2019-05-01T02:08:38.468Z,34.43
2019-05-01T02:11:24.125Z,34.27
2019-05-01T02:14:08.966Z,35.90
2019-05-01T02:16:54.131Z,38.07
2019-05-01T02:19:39.528Z,36.37
2019-05-01T02:22:24.595Z,40.87
2019-05-01T02:25:11.382Z,46.63
2019-05-01T02:28:15.170Z,40.27
2019-05-01T02:31:08.792Z,39.10
2019-05-01T02:33:54.509Z,38.93
2019-05-01T02:36:40.467Z,35.93
2019-05-01T02:39:27.990Z,36.63
2019-05-01T02:42:13.930Z,35.87
2019-05-01T02:45:01.759Z,36.43
2019-05-01T02:47:47.079Z,36.83
2019-05-01T02:50:34.528Z,36.07
2019-05-01T02:53:23.025Z,35.10
2019-05-01T02:56:18.229Z,37.33
2019-05-01T02:59:05.593Z,36.93
2019-05-01T03:01:52.272Z,37.73
2019-05-01T03:04:37.152Z,36.87
2019-05-01T03:07:23.322Z,33.93
2019-05-01T03:10:09.839Z,37.30
2019-05-01T03:12:56.003Z,35.30
2019-05-01T03:15:41.171Z,35.90
2019-05-01T03:18:31.018Z,36.37
2019-05-01T03:21:20.877Z,34.83
2019-05-01T03:24:10.866Z,34.17
2019-05-01T03:26:56.827Z,37.17
2019-05-01T03:29:41.862Z,41.50
2019-05-01T03:32:27.407Z,36.47
2019-05-01T03:35:12.594Z,36.13
2019-05-01T03:37:57.936Z,38.90
2019-05-01T03:40:43.248Z,39.77
2019-05-01T03:43:28.690Z,36.87
2019-05-01T03:46:13.832Z,40.27
2019-05-01T03:48:59.454Z,41.10
2019-05-01T03:51:44.360Z,39.83
2019-05-01T03:54:29.637Z,41.13
2019-05-01T03:57:14.563Z,40.60
2019-05-01T04:00:00.807Z,41.80
2019-05-01T04:02:53.684Z,43.60
2019-05-01T04:05:38.569Z,46.50
2019-05-01T04:08:24.258Z,43.50
2019-05-01T04:11:09.840Z,48.10
2019-05-01T04:13:55.588Z,46.63
2019-05-01T04:16:42.601Z,40.80
2019-05-01T04:19:27.354Z,47.17
2019-05-01T04:22:13.029Z,48.77
2019-05-01T04:24:58.016Z,47.07
2019-05-01T04:27:45.431Z,52.37
2019-05-01T04:30:32.824Z,48.17
2019-05-01T04:33:20.066Z,52.30
2019-05-01T04:36:23.801Z,53.50
2019-05-01T04:39:10.121Z,53.37
2019-05-01T04:41:55.139Z,57.37
2019-05-01T04:44:41.462Z,58.30
2019-05-01T04:47:26.748Z,56.57
2019-05-01T04:50:12.318Z,56.90
2019-05-01T04:52:57.954Z,57.30
2019-05-01T04:55:42.906Z,63.43
2019-05-01T04:58:28.462Z,57.83
2019-05-01T05:01:15.306Z,58.43
2019-05-01T05:04:00.422Z,58.73
2019-05-01T05:06:45.787Z,60.03
2019-05-01T05:09:43.902Z,60.00
2019-05-01T05:12:33.935Z,59.67
2019-05-01T05:15:24.226Z,66.50
2019-05-01T05:18:09.962Z,62.20
2019-05-01T05:20:55.089Z,60.63
2019-05-01T05:23:40.517Z,61.57
2019-05-01T05:26:25.916Z,60.90
2019-05-01T05:29:12.802Z,62.33
2019-05-01T05:32:01.210Z,69.73
2019-05-01T05:34:46.990Z,79.27
2019-05-01T05:37:36.754Z,86.80
2019-05-01T05:40:23.835Z,78.27
2019-05-01T05:43:09.022Z,82.43
2019-05-01T05:45:54.416Z,81.53
2019-05-01T05:48:39.960Z,80.60
2019-05-01T05:51:30.666Z,84.60
2019-05-01T05:54:32.343Z,83.47
2019-05-01T05:57:36.380Z,85.07
2019-05-01T06:00:28.395Z,83.77
2019-05-01T06:03:35.680Z,83.97
2019-05-01T06:06:26.135Z,83.40
2019-05-01T06:09:15.516Z,83.27
2019-05-01T06:12:08.931Z,88.40
2019-05-01T06:14:55.710Z,83.43
2019-05-01T06:17:45.237Z,86.67
2019-05-01T06:20:39.321Z,89.40
2019-05-01T06:23:40.373Z,93.37
2019-05-01T06:26:37.277Z,82.47
2019-05-01T06:29:20.065Z,91.60
2019-05-01T06:32:05.590Z,98.03
2019-05-01T06:34:50.866Z,88.23
2019-05-01T06:38:00.631Z,88.73
2019-05-01T06:40:47.055Z,84.30
2019-05-01T06:43:34.561Z,90.93
2019-05-01T06:46:21.938Z,88.10
2019-05-01T06:49:13.358Z,90.60
2019-05-01T06:52:02.365Z,96.63
2019-05-01T06:54:51.769Z,88.40
2019-05-01T06:57:38.477Z,84.93
2019-05-01T07:00:23.429Z,86.83
2019-05-01T07:03:10.391Z,88.17
2019-05-01T07:05:57.132Z,89.23
2019-05-01T07:08:43.284Z,89.20
2019-05-01T07:11:28.627Z,90.70
2019-05-01T07:14:16.121Z,89.73
2019-05-01T07:17:01.421Z,92.63
2019-05-01T07:19:54.760Z,91.33
2019-05-01T07:22:42.265Z,88.33
2019-05-01T07:25:28.180Z,84.47
2019-05-01T07:28:13.165Z,88.17
2019-05-01T07:31:00.526Z,87.70
2019-05-01T07:33:47.147Z,82.30
2019-05-01T07:36:33.194Z,87.17
2019-05-01T07:39:18.786Z,71.33
2019-05-01T07:42:22.873Z,75.90
2019-05-01T07:45:26.847Z,72.70
2019-05-01T07:48:13.435Z,71.07
2019-05-01T07:51:01.838Z,80.70
2019-05-01T07:53:47.649Z,84.17
2019-05-01T07:56:34.300Z,81.47
2019-05-01T07:59:22.881Z,84.17
2019-05-01T08:02:09.365Z,90.17
2019-05-01T08:04:54.616Z,95.47
2019-05-01T08:07:39.515Z,93.90
2019-05-01T08:10:30.549Z,88.63
2019-05-01T08:13:12.707Z,91.40
2019-05-01T08:16:02.136Z,83.90
2019-05-01T08:18:46.812Z,89.57
2019-05-01T08:21:33.862Z,86.83
2019-05-01T08:24:22.967Z,83.27
2019-05-01T08:27:07.630Z,84.23
2019-05-01T08:29:57.591Z,83.00
2019-05-01T08:32:50.008Z,82.93
2019-05-01T08:35:37.628Z,82.80
2019-05-01T08:38:22.845Z,72.63
2019-05-01T08:41:07.821Z,67.70
2019-05-01T08:43:54.072Z,72.97
2019-05-01T08:46:41.745Z,72.13
2019-05-01T08:49:33.111Z,66.03
2019-05-01T08:52:19.181Z,65.27
2019-05-01T08:55:09.357Z,65.53
2019-05-01T08:57:51.616Z,59.50
2019-05-01T09:00:41.173Z,62.80
2019-05-01T09:03:25.069Z,63.67
2019-05-01T09:06:09.672Z,67.93
2019-05-01T09:08:54.635Z,70.13
2019-05-01T09:11:41.519Z,67.63
2019-05-01T09:14:29.840Z,69.23
2019-05-01T09:17:13.926Z,70.73
2019-05-01T09:19:59.376Z,72.00
2019-05-01T09:22:44.558Z,68.33
2019-05-01T09:25:35.407Z,74.77
2019-05-01T09:28:20.044Z,66.40
2019-05-01T09:31:07.365Z,68.23
2019-05-01T09:33:52.606Z,73.63
2019-05-01T09:36:37.814Z,78.17
2019-05-01T09:39:23.381Z,73.63
2019-05-01T09:42:08.428Z,74.50
2019-05-01T09:44:54.065Z,69.97
2019-05-01T09:47:39.449Z,73.53
2019-05-01T09:50:25.875Z,76.47
2019-05-01T09:53:13.679Z,72.47
2019-05-01T09:56:03.263Z,71.00
2019-05-01T09:58:48.215Z,70.93
2019-05-01T10:01:33.689Z,76.60
2019-05-01T10:04:18.838Z,79.23
2019-05-01T10:07:04.909Z,76.43
2019-05-01T10:09:52.251Z,76.87
2019-05-01T10:12:37.056Z,82.60
2019-05-01T10:15:23.050Z,74.43
2019-05-01T10:18:08.360Z,70.03
2019-05-01T10:20:53.532Z,79.30
2019-05-01T10:23:38.396Z,72.13
2019-05-01T10:26:26.214Z,75.93
2019-05-01T10:29:13.412Z,70.67
2019-05-01T10:32:00.335Z,79.93
2019-05-01T10:34:47.006Z,74.10
2019-05-01T10:37:33.559Z,73.97
2019-05-01T10:40:22.118Z,78.07
2019-05-01T10:43:06.027Z,78.43
2019-05-01T10:45:51.137Z,77.83
2019-05-01T10:48:36.016Z,77.20
2019-05-01T10:51:21.004Z,79.47
2019-05-01T10:54:05.938Z,77.23
2019-05-01T10:56:50.814Z,71.90
2019-05-01T10:59:36.047Z,73.00
2019-05-01T11:02:20.815Z,80.77
2019-05-01T11:05:06.438Z,78.63
2019-05-01T11:07:51.800Z,74.43
2019-05-01T11:10:36.770Z,67.40
2019-05-01T11:13:21.944Z,66.70
2019-05-01T11:16:07.280Z,65.30
2019-05-01T11:18:52.742Z,70.40
2019-05-01T11:21:37.876Z,78.17
2019-05-01T11:24:22.806Z,80.07
2019-05-01T11:27:08.257Z,84.87
2019-05-01T11:29:53.577Z,78.10
2019-05-01T11:32:42.977Z,81.03
2019-05-01T11:35:45.217Z,80.53
2019-05-01T11:38:50.015Z,83.00
2019-05-01T11:41:37.313Z,81.93
2019-05-01T11:44:22.714Z,81.80
2019-05-01T11:47:08.872Z,80.03
2019-05-01T11:49:53.626Z,80.70
2019-05-01T11:52:38.542Z,82.63
2019-05-01T11:55:23.826Z,79.47
2019-05-01T11:58:08.854Z,75.63
2019-05-01T12:00:56.044Z,75.07
2019-05-01T12:03:41.069Z,68.90
2019-05-01T12:06:26.491Z,72.87
2019-05-01T12:09:11.976Z,73.70
2019-05-01T12:11:59.119Z,72.73
2019-05-01T12:14:44.211Z,67.10
2019-05-01T12:17:42.887Z,71.03
2019-05-01T12:20:27.854Z,66.23
2019-05-01T12:23:13.052Z,64.75
2019-05-01T12:25:58.599Z,68.25
2019-05-01T12:28:43.944Z,66.20
2019-05-01T12:31:31.169Z,71.92
2019-05-01T12:34:15.801Z,61.90
2019-05-01T12:37:17.761Z,68.65
2019-05-01T12:40:05.214Z,64.47
2019-05-01T12:42:49.919Z,63.90
2019-05-01T12:45:35.039Z,66.33
2019-05-01T12:48:20.267Z,62.33
2019-05-01T12:51:07.015Z,60.98
2019-05-01T12:54:10.428Z,62.08
2019-05-01T12:56:59.069Z,61.08
2019-05-01T12:59:44.123Z,60.30
2019-05-01T13:02:29.570Z,59.35
2019-05-01T13:05:14.782Z,55.43
2019-05-01T13:08:01.879Z,58.48
2019-05-01T13:10:49.747Z,57.62
2019-05-01T13:13:35.369Z,60.48
2019-05-01T13:16:20.470Z,58.00
2019-05-01T13:19:05.522Z,55.55
2019-05-01T13:21:50.709Z,52.67
2019-05-01T13:24:38.071Z,54.05
2019-05-01T13:27:41.369Z,48.15
2019-05-01T13:30:40.051Z,48.48
2019-05-01T13:33:25.174Z,49.25
2019-05-01T13:36:10.480Z,48.52
2019-05-01T13:38:55.776Z,48.15
2019-05-01T13:41:41.154Z,49.58
2019-05-01T13:44:26.324Z,49.50
2019-05-01T13:47:11.300Z,49.08
2019-05-01T13:49:56.550Z,49.25
2019-05-01T13:52:41.438Z,47.88
2019-05-01T13:55:26.991Z,48.38
2019-05-01T13:58:12.359Z,47.70
2019-05-01T14:00:57.080Z,47.23
2019-05-01T14:03:43.861Z,45.65
2019-05-01T14:06:28.843Z,49.77
2019-05-01T14:09:15.918Z,45.85
2019-05-01T14:12:00.900Z,46.95
2019-05-01T14:14:45.981Z,45.60
2019-05-01T14:17:30.755Z,46.23
2019-05-01T14:20:18.120Z,47.00
2019-05-01T14:23:20.179Z,46.35
2019-05-01T14:26:07.129Z,46.60
2019-05-01T14:28:52.335Z,45.88
2019-05-01T14:31:37.421Z,45.48
2019-05-01T14:34:24.061Z,48.85
2019-05-01T14:37:09.259Z,45.67
2019-05-01T14:39:54.389Z,44.75
2019-05-01T14:42:40.589Z,44.05
2019-05-01T14:45:25.800Z,47.85
2019-05-01T14:48:11.066Z,45.65
2019-05-01T14:50:56.263Z,48.25
2019-05-01T14:53:41.733Z,44.73
2019-05-01T14:56:26.822Z,43.58
2019-05-01T14:59:12.428Z,43.48
2019-05-01T15:01:57.705Z,39.20
2019-05-01T15:04:43.107Z,40.45
2019-05-01T15:07:28.104Z,39.60
2019-05-01T15:10:13.164Z,40.20
2019-05-01T15:13:00.038Z,42.70
2019-05-01T15:15:49.595Z,39.92
2019-05-01T15:18:52.827Z,38.88
2019-05-01T15:21:37.515Z,38.65
2019-05-01T15:24:23.001Z,39.08
2019-05-01T15:27:08.502Z,39.18
2019-05-01T15:29:53.919Z,38.00
2019-05-01T15:32:38.871Z,34.67
2019-05-01T15:35:24.809Z,34.08
2019-05-01T15:38:10.173Z,33.42
2019-05-01T15:40:59.546Z,31.30
2019-05-01T15:43:46.791Z,30.15
2019-05-01T15:46:33.855Z,33.20
2019-05-01T15:49:18.861Z,30.37
2019-05-01T15:52:04.444Z,31.17
2019-05-01T15:54:49.593Z,31.37
2019-05-01T15:57:35.103Z,33.78
2019-05-01T16:00:20.908Z,35.10
2019-05-01T16:03:05.753Z,33.95
2019-05-01T16:05:50.795Z,34.20
2019-05-01T16:08:35.889Z,34.65
2019-05-01T16:11:31.794Z,32.45
2019-05-01T16:14:16.812Z,31.48
2019-05-01T16:17:02.080Z,34.03
2019-05-01T16:19:47.386Z,33.53
2019-05-01T16:22:34.323Z,32.13
2019-05-01T16:25:19.598Z,30.65
2019-05-01T16:28:06.237Z,31.25
2019-05-01T16:30:53.084Z,33.55
2019-05-01T16:33:38.458Z,32.35
2019-05-01T16:36:23.361Z,34.03
2019-05-01T16:39:10.762Z,31.68
2019-05-01T16:41:56.186Z,33.75
2019-05-01T16:44:41.413Z,35.88
2019-05-01T16:47:26.854Z,33.95
2019-05-01T16:50:11.847Z,33.25
2019-05-01T16:52:56.871Z,34.98
2019-05-01T16:55:42.684Z,36.77
2019-05-01T16:58:28.250Z,32.60
2019-05-01T17:01:17.399Z,35.15
2019-05-01T17:04:04.627Z,35.52
2019-05-01T17:06:51.956Z,35.78
2019-05-01T17:09:55.155Z,33.83
2019-05-01T17:12:51.058Z,37.48
2019-05-01T17:15:37.995Z,38.23
2019-05-01T17:18:23.782Z,35.75
2019-05-01T17:21:09.009Z,35.98
2019-05-01T17:23:54.589Z,37.93
2019-05-01T17:26:39.735Z,34.85
2019-05-01T17:29:25.290Z,33.05
2019-05-01T17:32:12.302Z,32.83
2019-05-01T17:35:01.806Z,34.33
2019-05-01T17:37:44.515Z,32.98
2019-05-01T17:40:29.996Z,37.15
2019-05-01T17:43:15.578Z,33.05
2019-05-01T17:46:01.057Z,33.45
2019-05-01T17:48:45.929Z,34.98
2019-05-01T17:51:31.423Z,36.77
2019-05-01T17:54:17.928Z,36.65
2019-05-01T17:57:03.255Z,36.63
2019-05-01T17:59:52.392Z,34.80
2019-05-01T18:02:51.284Z,35.58
2019-05-01T18:05:56.164Z,35.03
2019-05-01T18:08:40.821Z,41.08
2019-05-01T18:11:25.919Z,36.58
2019-05-01T18:14:10.963Z,37.10
2019-05-01T18:16:56.389Z,36.55
2019-05-01T18:19:41.547Z,35.05
2019-05-01T18:22:32.117Z,35.50
2019-05-01T18:25:17.785Z,34.87
2019-05-01T18:28:07.761Z,40.10
2019-05-01T18:30:56.519Z,36.75
2019-05-01T18:33:39.646Z,36.08
2019-05-01T18:36:35.395Z,37.70
2019-05-01T18:39:26.993Z,35.63
2019-05-01T18:42:16.605Z,36.77
2019-05-01T18:45:05.682Z,36.73
2019-05-01T18:47:50.704Z,37.13
2019-05-01T18:50:36.727Z,36.98
2019-05-01T18:53:22.177Z,36.27
2019-05-01T18:56:07.548Z,39.30
2019-05-01T18:58:52.450Z,38.87
2019-05-01T19:01:38.131Z,43.15
2019-05-01T19:04:24.712Z,40.67
2019-05-01T19:07:10.310Z,42.73
2019-05-01T19:09:55.413Z,40.27
2019-05-01T19:12:41.280Z,42.30
2019-05-01T19:15:26.389Z,46.70
2019-05-01T19:18:24.880Z,45.03
2019-05-01T19:21:10.795Z,45.07
2019-05-01T19:24:00.443Z,47.40
2019-05-01T19:26:44.098Z,43.63
2019-05-01T19:29:32.069Z,43.90
2019-05-01T19:32:17.283Z,43.60
2019-05-01T19:35:03.657Z,46.97
2019-05-01T19:37:52.923Z,44.87
2019-05-01T19:40:36.582Z,43.80
2019-05-01T19:43:21.863Z,45.00
2019-05-01T19:46:07.419Z,47.57
2019-05-01T19:48:52.818Z,43.13
2019-05-01T19:51:37.741Z,45.73
2019-05-01T19:54:27.764Z,47.33
2019-05-01T19:57:10.188Z,49.17
2019-05-01T19:59:55.818Z,45.60
2019-05-01T20:02:41.101Z,48.90
2019-05-01T20:05:27.141Z,47.20
2019-05-01T20:08:13.388Z,50.77
2019-05-01T20:10:58.938Z,51.17
2019-05-01T20:13:44.238Z,51.23
2019-05-01T20:16:29.375Z,55.77
2019-05-01T20:19:14.550Z,51.70
2019-05-01T20:22:00.230Z,51.23
2019-05-01T20:24:45.862Z,52.63
2019-05-01T20:27:31.113Z,52.47
2019-05-01T20:30:16.559Z,48.37
2019-05-01T20:33:02.389Z,50.47
2019-05-01T20:35:48.878Z,52.53
2019-05-01T20:38:35.504Z,52.63
2019-05-01T20:41:20.668Z,48.83
2019-05-01T20:44:06.475Z,55.93
2019-05-01T20:46:51.608Z,51.77
2019-05-01T20:49:41.435Z,52.23
2019-05-01T20:52:23.841Z,52.90
2019-05-01T20:55:09.571Z,53.83
2019-05-01T20:57:56.361Z,51.87
2019-05-01T21:00:41.459Z,52.93
2019-05-01T21:03:28.102Z,52.10
2019-05-01T21:06:17.678Z,52.90
2019-05-01T21:09:13.920Z,51.43
2019-05-01T21:12:05.139Z,57.10
2019-05-01T21:14:45.379Z,50.47
2019-05-01T21:17:31.484Z,50.40
2019-05-01T21:20:16.860Z,48.43
2019-05-01T21:23:05.927Z,49.77
2019-05-01T21:25:49.584Z,48.07
2019-05-01T21:28:34.417Z,50.80
2019-05-01T21:31:19.141Z,51.07
2019-05-01T21:34:04.330Z,48.30
2019-05-01T21:36:52.845Z,50.03
2019-05-01T21:39:36.529Z,51.20
2019-05-01T21:42:24.313Z,53.00
2019-05-01T21:45:09.397Z,52.83
2019-05-01T21:47:54.759Z,47.40
2019-05-01T21:50:39.705Z,50.57
2019-05-01T21:53:25.338Z,50.83
2019-05-01T21:56:10.778Z,49.87
2019-05-01T21:58:59.557Z,51.90
2019-05-01T22:01:43.187Z,50.30
2019-05-01T22:04:31.742Z,49.80
2019-05-01T22:07:16.176Z,51.67
2019-05-01T22:10:01.320Z,54.70
2019-05-01T22:12:49.028Z,53.20
2019-05-01T22:15:42.047Z,50.83
2019-05-01T22:18:36.254Z,54.23
2019-05-01T22:21:40.016Z,52.97
2019-05-01T22:24:26.915Z,57.73
2019-05-01T22:27:16.486Z,54.87
2019-05-01T22:30:05.740Z,52.97
2019-05-01T22:32:54.053Z,55.87
2019-05-01T22:35:43.951Z,58.87
2019-05-01T22:38:29.412Z,55.90
2019-05-01T22:41:14.460Z,57.57
2019-05-01T22:43:59.567Z,54.70
2019-05-01T22:46:44.387Z,65.10
2019-05-01T22:49:29.953Z,56.83
2019-05-01T22:52:15.617Z,59.30
2019-05-01T22:55:00.786Z,59.93
2019-05-01T22:57:45.806Z,59.03
2019-05-01T23:00:36.182Z,60.10
2019-05-01T23:03:22.981Z,60.23
2019-05-01T23:06:07.976Z,58.40
2019-05-01T23:08:52.868Z,65.17
2019-05-01T23:11:39.881Z,59.90
2019-05-01T23:14:26.588Z,60.03
2019-05-01T23:17:14.001Z,62.33
2019-05-01T23:20:03.548Z,63.20
2019-05-01T23:22:46.021Z,62.33
2019-05-01T23:25:30.988Z,62.90
2019-05-01T23:28:16.637Z,65.00
2019-05-01T23:31:01.785Z,63.90
2019-05-01T23:33:50.581Z,64.07
2019-05-01T23:36:33.986Z,67.20
2019-05-01T23:39:19.428Z,60.70
2019-05-01T23:42:04.555Z,66.40
2019-05-01T23:44:50.376Z,66.70
2019-05-01T23:47:36.518Z,66.57
2019-05-01T23:50:23.377Z,62.40
2019-05-01T23:53:09.097Z,63.33
2019-05-01T23:56:00.042Z,64.23
2019-05-01T23:58:43.442Z,62.27
